OITM 
Sahand Airport
Maragheh, Iran 
ICAOIATAStatus
OITMACPOperational
LatitudeLongitude
37° 20' 52" N46° 7' 40" E
37.34800046.127899
Local Time (DST+5)UTC (GMT+4)
04-25-2014 01:45 am04-24-2014 21:15
Sunrise-SunsetLocalUTC
Begin Civil Twilight06:08 am01:38
Sunrise06:36 am02:06
Sunset08:10 pm15:40
End Civil Twilight08:38 pm16:08

Current Weather

METARObservedFlight Conditions

OITM 242100Z 07008KT CAVOK 12/02 Q1017

Thu, Apr 24, 2014 @ 21:00 UTC(Z)

(15 Minutes ago)

VFR

(Visual Flight Rules)

WindVisibilityCloudsConditions
070° at 8 knots (15 kph)
10 km or more
  • Clear skies
  • No significant weather
TemperaturesReadingsPrecipitation
Current Temp12°C (54°F)
Dewpoint2°C (36°F)
Humidity51%
Altimeter30.03"Hg
Sea Level Pressure1017mb
Field Elevation4396.33'
None Recorded

Additional weather within a 92.6km radius of OITM

Location METAR
OITT

87.8km N (006°)

15 minutes ago
VFR VFR    MVFR MVFR    IFR IFR    LIFR LIFR    Unknown Unknown

Previous 24 hour Weather Graphs

  Loading...

CheckWX.com is intended as a tool to help pilots better visualize weather data.   It is not intended as a substitute for an official weather briefing obtained from a Flight Service Station.
CheckWX.com does not meet the FAA requirements for an official pre-flight weather briefing.   Therefore, it's important that pilots still call and obtain an official FSS pre-flight weather briefing.